sensor_id;sensor_type;location;lat;lon;timestamp;pressure;altitude;pressure_sealevel;temperature;humidity
10606;BME280;5350;42.698;23.148;2022-09-20T00:01:17;93734.13;;;9.30;100.00
10606;BME280;5350;42.698;23.148;2022-09-20T00:03:45;93742.06;;;9.25;100.00
10606;BME280;5350;42.698;23.148;2022-09-20T00:06:12;93742.59;;;9.22;100.00
10606;BME280;5350;42.698;23.148;2022-09-20T00:08:39;93744.09;;;9.28;100.00
10606;BME280;5350;42.698;23.148;2022-09-20T00:11:06;93750.75;;;9.21;100.00
10606;BME280;5350;42.698;23.148;2022-09-20T00:13:35;93743.28;;;9.33;100.00
10606;BME280;5350;42.698;23.148;2022-09-20T00:16:05;93743.88;;;9.25;100.00
10606;BME280;5350;42.698;23.148;2022-09-20T00:18:32;93752.25;;;9.27;100.00
10606;BME280;5350;42.698;23.148;2022-09-20T00:20:58;93738.59;;;9.30;100.00
10606;BME280;5350;42.698;23.148;2022-09-20T00:23:25;93745.19;;;9.27;100.00
10606;BME280;5350;42.698;23.148;2022-09-20T00:25:55;93748.34;;;9.24;100.00
10606;BME280;5350;42.698;23.148;2022-09-20T00:28:22;93744.44;;;9.22;100.00
10606;BME280;5350;42.698;23.148;2022-09-20T00:30:48;93742.34;;;9.24;100.00
10606;BME280;5350;42.698;23.148;2022-09-20T00:33:17;93738.63;;;9.25;100.00
10606;BME280;5350;42.698;23.148;2022-09-20T00:35:44;93742.22;;;9.34;100.00
10606;BME280;5350;42.698;23.148;2022-09-20T00:38:09;93747.38;;;9.44;100.00
10606;BME280;5350;42.698;23.148;2022-09-20T00:40:38;93745.75;;;9.48;100.00
10606;BME280;5350;42.698;23.148;2022-09-20T00:43:04;93745.97;;;9.51;100.00
10606;BME280;5350;42.698;23.148;2022-09-20T00:45:31;93743.34;;;9.51;100.00
10606;BME280;5350;42.698;23.148;2022-09-20T00:48:00;93745.66;;;9.58;100.00
10606;BME280;5350;42.698;23.148;2022-09-20T00:50:31;93742.94;;;9.39;100.00
10606;BME280;5350;42.698;23.148;2022-09-20T00:53:00;93734.91;;;9.31;100.00
10606;BME280;5350;42.698;23.148;2022-09-20T00:55:29;93735.88;;;9.40;100.00
10606;BME280;5350;42.698;23.148;2022-09-20T00:57:56;93734.53;;;9.42;100.00
10606;BME280;5350;42.698;23.148;2022-09-20T01:00:22;93726.88;;;9.46;100.00
10606;BME280;5350;42.698;23.148;2022-09-20T01:02:50;93728.03;;;9.35;100.00
10606;BME280;5350;42.698;23.148;2022-09-20T01:05:17;93724.97;;;9.28;100.00
10606;BME280;5350;42.698;23.148;2022-09-20T01:07:46;93736.34;;;9.18;100.00
10606;BME280;5350;42.698;23.148;2022-09-20T01:10:13;93736.59;;;9.22;100.00
10606;BME280;5350;42.698;23.148;2022-09-20T01:12:39;93739.47;;;9.20;100.00
10606;BME280;5350;42.698;23.148;2022-09-20T01:15:10;93745.78;;;9.19;100.00
10606;BME280;5350;42.698;23.148;2022-09-20T01:17:39;93734.63;;;9.04;100.00
10606;BME280;5350;42.698;23.148;2022-09-20T01:20:10;93740.28;;;9.16;100.00
10606;BME280;5350;42.698;23.148;2022-09-20T01:22:40;93747.66;;;9.14;100.00
10606;BME280;5350;42.698;23.148;2022-09-20T01:25:13;93739.28;;;9.12;100.00
10606;BME280;5350;42.698;23.148;2022-09-20T01:27:43;93747.72;;;9.09;100.00
10606;BME280;5350;42.698;23.148;2022-09-20T01:30:12;93729.88;;;9.06;100.00
10606;BME280;5350;42.698;23.148;2022-09-20T01:32:44;93729.94;;;9.01;100.00
10606;BME280;5350;42.698;23.148;2022-09-20T01:35:15;93735.63;;;9.08;100.00
10606;BME280;5350;42.698;23.148;2022-09-20T01:37:47;93748.16;;;9.16;100.00
10606;BME280;5350;42.698;23.148;2022-09-20T01:40:18;93750.88;;;9.06;100.00
10606;BME280;5350;42.698;23.148;2022-09-20T01:42:48;93759.25;;;9.08;100.00
10606;BME280;5350;42.698;23.148;2022-09-20T01:45:22;93767.44;;;9.01;100.00
10606;BME280;5350;42.698;23.148;2022-09-20T01:47:51;93767.78;;;8.95;100.00
10606;BME280;5350;42.698;23.148;2022-09-20T01:50:27;93775.19;;;8.88;100.00
10606;BME280;5350;42.698;23.148;2022-09-20T01:53:06;93771.16;;;8.95;100.00
10606;BME280;5350;42.698;23.148;2022-09-20T02:01:36;93734.81;;;8.83;100.00
10606;BME280;5350;42.698;23.148;2022-09-20T02:04:09;93740.06;;;8.83;100.00
10606;BME280;5350;42.698;23.148;2022-09-20T02:06:48;93747.34;;;8.86;100.00
10606;BME280;5350;42.698;23.148;2022-09-20T02:09:27;93744.91;;;8.66;100.00
10606;BME280;5350;42.698;23.148;2022-09-20T02:12:06;93742.38;;;8.51;100.00
10606;BME280;5350;42.698;23.148;2022-09-20T02:14:41;93740.75;;;8.60;100.00
10606;BME280;5350;42.698;23.148;2022-09-20T02:17:15;93741.63;;;8.51;100.00
10606;BME280;5350;42.698;23.148;2022-09-20T02:19:52;93739.03;;;8.46;100.00
10606;BME280;5350;42.698;23.148;2022-09-20T02:22:30;93745.13;;;8.36;100.00
10606;BME280;5350;42.698;23.148;2022-09-20T02:25:07;93745.38;;;8.35;100.00
10606;BME280;5350;42.698;23.148;2022-09-20T02:27:39;93741.16;;;8.39;100.00
10606;BME280;5350;42.698;23.148;2022-09-20T02:30:10;93753.53;;;8.33;100.00
10606;BME280;5350;42.698;23.148;2022-09-20T02:35:26;93742.19;;;7.94;100.00
10606;BME280;5350;42.698;23.148;2022-09-20T02:37:59;93745.03;;;7.97;100.00
10606;BME280;5350;42.698;23.148;2022-09-20T02:40:39;93746.34;;;7.95;100.00
10606;BME280;5350;42.698;23.148;2022-09-20T02:43:13;93745.84;;;7.93;100.00
10606;BME280;5350;42.698;23.148;2022-09-20T02:45:43;93753.69;;;7.98;100.00
10606;BME280;5350;42.698;23.148;2022-09-20T02:48:13;93751.06;;;7.98;100.00
10606;BME280;5350;42.698;23.148;2022-09-20T02:50:44;93743.78;;;7.90;100.00
10606;BME280;5350;42.698;23.148;2022-09-20T02:53:22;93743.78;;;7.85;100.00
10606;BME280;5350;42.698;23.148;2022-09-20T02:55:54;93745.84;;;7.93;100.00
10606;BME280;5350;42.698;23.148;2022-09-20T02:58:29;93747.41;;;7.94;100.00
10606;BME280;5350;42.698;23.148;2022-09-20T03:01:00;93752.44;;;7.80;100.00
10606;BME280;5350;42.698;23.148;2022-09-20T03:03:31;93745.41;;;7.66;100.00
10606;BME280;5350;42.698;23.148;2022-09-20T03:06:04;93743.03;;;7.74;100.00
10606;BME280;5350;42.698;23.148;2022-09-20T03:08:33;93740.69;;;7.78;100.00
10606;BME280;5350;42.698;23.148;2022-09-20T03:11:08;93741.72;;;7.77;100.00
10606;BME280;5350;42.698;23.148;2022-09-20T03:13:41;93751.69;;;7.75;100.00
10606;BME280;5350;42.698;23.148;2022-09-20T03:16:09;93747.50;;;7.74;100.00
10606;BME280;5350;42.698;23.148;2022-09-20T03:18:43;93747.00;;;7.62;100.00
10606;BME280;5350;42.698;23.148;2022-09-20T03:21:19;93746.78;;;7.58;100.00
10606;BME280;5350;42.698;23.148;2022-09-20T03:23:51;93739.75;;;7.39;100.00
10606;BME280;5350;42.698;23.148;2022-09-20T03:26:24;93749.69;;;7.47;100.00
10606;BME280;5350;42.698;23.148;2022-09-20T03:28:57;93754.91;;;7.52;100.00
10606;BME280;5350;42.698;23.148;2022-09-20T03:31:39;93759.34;;;7.56;100.00
10606;BME280;5350;42.698;23.148;2022-09-20T03:34:13;93752.00;;;7.53;100.00
10606;BME280;5350;42.698;23.148;2022-09-20T03:36:48;93762.22;;;7.50;100.00
10606;BME280;5350;42.698;23.148;2022-09-20T03:39:29;93766.16;;;7.52;100.00
10606;BME280;5350;42.698;23.148;2022-09-20T03:42:01;93759.88;;;7.48;100.00
10606;BME280;5350;42.698;23.148;2022-09-20T03:44:41;93764.88;;;7.40;100.00
10606;BME280;5350;42.698;23.148;2022-09-20T03:47:12;93756.47;;;7.53;100.00
10606;BME280;5350;42.698;23.148;2022-09-20T03:49:52;93766.69;;;7.49;100.00
10606;BME280;5350;42.698;23.148;2022-09-20T03:52:31;93764.13;;;7.34;100.00
10606;BME280;5350;42.698;23.148;2022-09-20T03:55:13;93752.84;;;7.39;100.00
10606;BME280;5350;42.698;23.148;2022-09-20T03:57:53;93752.84;;;7.28;100.00
10606;BME280;5350;42.698;23.148;2022-09-20T04:00:25;93753.66;;;7.29;100.00
10606;BME280;5350;42.698;23.148;2022-09-20T04:03:18;93755.47;;;7.34;100.00
10606;BME280;5350;42.698;23.148;2022-09-20T04:05:51;93769.34;;;7.24;100.00
10606;BME280;5350;42.698;23.148;2022-09-20T04:08:31;93773.28;;;7.26;100.00
10606;BME280;5350;42.698;23.148;2022-09-20T04:11:04;93777.97;;;7.24;100.00
10606;BME280;5350;42.698;23.148;2022-09-20T04:13:34;93780.09;;;7.28;100.00
10606;BME280;5350;42.698;23.148;2022-09-20T04:16:13;93786.88;;;7.28;100.00
10606;BME280;5350;42.698;23.148;2022-09-20T04:18:45;93779.03;;;7.28;100.00
10606;BME280;5350;42.698;23.148;2022-09-20T04:21:15;93778.22;;;7.43;100.00
10606;BME280;5350;42.698;23.148;2022-09-20T04:23:51;93777.19;;;7.29;100.00
10606;BME280;5350;42.698;23.148;2022-09-20T04:26:23;93786.38;;;7.21;100.00
10606;BME280;5350;42.698;23.148;2022-09-20T04:28:52;93786.34;;;7.37;100.00
10606;BME280;5350;42.698;23.148;2022-09-20T04:31:23;93787.94;;;7.22;100.00
10606;BME280;5350;42.698;23.148;2022-09-20T04:33:53;93791.06;;;7.24;100.00
10606;BME280;5350;42.698;23.148;2022-09-20T04:36:31;93783.75;;;7.16;100.00
10606;BME280;5350;42.698;23.148;2022-09-20T04:39:02;93795.25;;;7.15;100.00
10606;BME280;5350;42.698;23.148;2022-09-20T04:41:51;93789.00;;;7.16;100.00
10606;BME280;5350;42.698;23.148;2022-09-20T04:44:28;93794.72;;;7.13;100.00
10606;BME280;5350;42.698;23.148;2022-09-20T04:52:43;93793.66;;;7.35;100.00
10606;BME280;5350;42.698;23.148;2022-09-20T04:55:31;93781.91;;;7.42;100.00
10606;BME280;5350;42.698;23.148;2022-09-20T04:58:06;93784.75;;;7.51;100.00
10606;BME280;5350;42.698;23.148;2022-09-20T05:00:41;93790.22;;;7.59;100.00
10606;BME280;5350;42.698;23.148;2022-09-20T05:03:20;93783.66;;;7.62;100.00
10606;BME280;5350;42.698;23.148;2022-09-20T05:06:04;93787.84;;;7.63;100.00
10606;BME280;5350;42.698;23.148;2022-09-20T05:16:58;93802.91;;;8.01;100.00
10606;BME280;5350;42.698;23.148;2022-09-20T05:19:29;93812.34;;;8.07;100.00
10606;BME280;5350;42.698;23.148;2022-09-20T05:24:50;93818.25;;;8.33;100.00
10606;BME280;5350;42.698;23.148;2022-09-20T05:27:24;93812.72;;;8.39;100.00
10606;BME280;5350;42.698;23.148;2022-09-20T05:29:55;93819.25;;;8.42;100.00
10606;BME280;5350;42.698;23.148;2022-09-20T05:32:29;93820.50;;;8.54;100.00
10606;BME280;5350;42.698;23.148;2022-09-20T05:35:01;93817.66;;;8.51;100.00
10606;BME280;5350;42.698;23.148;2022-09-20T05:37:34;93816.81;;;8.55;100.00
10606;BME280;5350;42.698;23.148;2022-09-20T05:40:04;93812.56;;;8.64;100.00
10606;BME280;5350;42.698;23.148;2022-09-20T05:42:34;93813.50;;;8.83;100.00
10606;BME280;5350;42.698;23.148;2022-09-20T05:45:08;93815.53;;;8.92;100.00
10606;BME280;5350;42.698;23.148;2022-09-20T05:47:47;93817.56;;;9.00;100.00
10606;BME280;5350;42.698;23.148;2022-09-20T05:50:23;93817.50;;;9.10;100.00
10606;BME280;5350;42.698;23.148;2022-09-20T05:52:53;93814.31;;;9.18;100.00
10606;BME280;5350;42.698;23.148;2022-09-20T05:58:21;93817.34;;;9.30;100.00
10606;BME280;5350;42.698;23.148;2022-09-20T06:00:53;93810.88;;;9.46;100.00
10606;BME280;5350;42.698;23.148;2022-09-20T06:03:23;93809.25;;;9.55;100.00
10606;BME280;5350;42.698;23.148;2022-09-20T06:05:54;93811.75;;;9.65;100.00
10606;BME280;5350;42.698;23.148;2022-09-20T06:08:30;93819.25;;;9.77;100.00
10606;BME280;5350;42.698;23.148;2022-09-20T06:11:13;93819.94;;;9.87;100.00
10606;BME280;5350;42.698;23.148;2022-09-20T06:13:48;93822.50;;;9.92;100.00
10606;BME280;5350;42.698;23.148;2022-09-20T06:16:30;93823.50;;;9.96;100.00
10606;BME280;5350;42.698;23.148;2022-09-20T06:19:03;93824.97;;;10.07;100.00
10606;BME280;5350;42.698;23.148;2022-09-20T06:21:34;93822.59;;;10.11;100.00
10606;BME280;5350;42.698;23.148;2022-09-20T06:24:15;93821.13;;;10.23;100.00
10606;BME280;5350;42.698;23.148;2022-09-20T06:26:44;93822.09;;;10.32;100.00
10606;BME280;5350;42.698;23.148;2022-09-20T06:29:10;93822.09;;;10.51;100.00
10606;BME280;5350;42.698;23.148;2022-09-20T06:31:40;93822.81;;;10.57;100.00
10606;BME280;5350;42.698;23.148;2022-09-20T06:34:08;93828.50;;;10.64;100.00
10606;BME280;5350;42.698;23.148;2022-09-20T06:36:36;93822.03;;;10.75;100.00
10606;BME280;5350;42.698;23.148;2022-09-20T06:39:23;93826.44;;;10.79;97.66
10606;BME280;5350;42.698;23.148;2022-09-20T06:42:12;93830.69;;;10.94;96.15
10606;BME280;5350;42.698;23.148;2022-09-20T06:44:38;93834.81;;;11.00;93.64
10606;BME280;5350;42.698;23.148;2022-09-20T06:47:05;93832.91;;;11.05;92.70
10606;BME280;5350;42.698;23.148;2022-09-20T06:49:34;93834.63;;;11.28;92.65
10606;BME280;5350;42.698;23.148;2022-09-20T06:52:00;93831.94;;;11.34;83.87
10606;BME280;5350;42.698;23.148;2022-09-20T06:54:28;93833.13;;;11.41;83.38
10606;BME280;5350;42.698;23.148;2022-09-20T06:56:55;93836.84;;;11.40;85.98
10606;BME280;5350;42.698;23.148;2022-09-20T06:59:21;93842.84;;;11.59;86.82
10606;BME280;5350;42.698;23.148;2022-09-20T07:01:48;93843.41;;;11.56;83.24
10606;BME280;5350;42.698;23.148;2022-09-20T07:04:14;93844.00;;;11.53;83.14
10606;BME280;5350;42.698;23.148;2022-09-20T07:06:42;93840.47;;;11.58;85.48
10606;BME280;5350;42.698;23.148;2022-09-20T07:09:09;93843.69;;;11.73;85.81
10606;BME280;5350;42.698;23.148;2022-09-20T07:11:36;93849.38;;;11.80;84.12
10606;BME280;5350;42.698;23.148;2022-09-20T07:14:02;93848.47;;;11.85;82.53
10606;BME280;5350;42.698;23.148;2022-09-20T07:16:29;93856.78;;;11.92;82.21
10606;BME280;5350;42.698;23.148;2022-09-20T07:18:56;93851.91;;;11.85;81.91
10606;BME280;5350;42.698;23.148;2022-09-20T07:21:23;93858.44;;;12.01;79.09
10606;BME280;5350;42.698;23.148;2022-09-20T07:23:51;93860.31;;;12.15;81.61
10606;BME280;5350;42.698;23.148;2022-09-20T07:26:19;93866.28;;;12.07;78.22
10606;BME280;5350;42.698;23.148;2022-09-20T07:28:46;93862.09;;;12.19;82.91
10606;BME280;5350;42.698;23.148;2022-09-20T07:31:13;93853.28;;;12.37;79.54
10606;BME280;5350;42.698;23.148;2022-09-20T07:33:40;93847.22;;;12.50;80.02
10606;BME280;5350;42.698;23.148;2022-09-20T07:36:06;93854.66;;;12.62;78.31
10606;BME280;5350;42.698;23.148;2022-09-20T07:38:36;93861.88;;;12.70;79.27
10606;BME280;5350;42.698;23.148;2022-09-20T07:41:04;93851.09;;;12.80;76.31
10606;BME280;5350;42.698;23.148;2022-09-20T07:43:31;93849.84;;;12.77;75.89
10606;BME280;5350;42.698;23.148;2022-09-20T07:45:57;93847.41;;;12.67;73.30
10606;BME280;5350;42.698;23.148;2022-09-20T07:48:25;93850.53;;;12.56;76.53
10606;BME280;5350;42.698;23.148;2022-09-20T07:50:52;93849.78;;;12.42;77.66
10606;BME280;5350;42.698;23.148;2022-09-20T07:53:19;93852.22;;;12.52;81.06
10606;BME280;5350;42.698;23.148;2022-09-20T07:55:55;93849.75;;;12.69;78.78
10606;BME280;5350;42.698;23.148;2022-09-20T07:58:24;93849.75;;;12.82;71.91
10606;BME280;5350;42.698;23.148;2022-09-20T08:00:51;93839.53;;;12.90;74.25
10606;BME280;5350;42.698;23.148;2022-09-20T08:03:17;93844.41;;;12.96;75.83
10606;BME280;5350;42.698;23.148;2022-09-20T08:05:44;93843.47;;;13.06;70.73
10606;BME280;5350;42.698;23.148;2022-09-20T08:08:11;93838.19;;;13.06;69.75
10606;BME280;5350;42.698;23.148;2022-09-20T08:10:37;93850.06;;;13.03;70.44
10606;BME280;5350;42.698;23.148;2022-09-20T08:13:05;93856.75;;;12.87;69.46
10606;BME280;5350;42.698;23.148;2022-09-20T08:15:33;93853.03;;;12.88;70.87
10606;BME280;5350;42.698;23.148;2022-09-20T08:17:59;93852.03;;;12.98;71.51
10606;BME280;5350;42.698;23.148;2022-09-20T08:20:26;93862.22;;;13.04;65.93
10606;BME280;5350;42.698;23.148;2022-09-20T08:22:52;93858.00;;;13.03;68.87
10606;BME280;5350;42.698;23.148;2022-09-20T08:25:19;93856.25;;;12.85;65.74
10606;BME280;5350;42.698;23.148;2022-09-20T08:27:50;93855.13;;;12.77;64.44
10606;BME280;5350;42.698;23.148;2022-09-20T08:30:17;93851.97;;;12.89;64.78
10606;BME280;5350;42.698;23.148;2022-09-20T08:32:45;93848.31;;;12.99;68.28
10606;BME280;5350;42.698;23.148;2022-09-20T08:35:11;93837.94;;;13.16;69.74
10606;BME280;5350;42.698;23.148;2022-09-20T08:37:39;93848.41;;;13.43;68.49
10606;BME280;5350;42.698;23.148;2022-09-20T08:40:06;93840.38;;;13.56;64.77
10606;BME280;5350;42.698;23.148;2022-09-20T08:42:33;93842.44;;;13.59;63.38
10606;BME280;5350;42.698;23.148;2022-09-20T08:45:01;93843.66;;;13.53;64.60
10606;BME280;5350;42.698;23.148;2022-09-20T08:47:29;93840.28;;;13.61;63.67
10606;BME280;5350;42.698;23.148;2022-09-20T08:49:57;93837.63;;;13.61;64.03
10606;BME280;5350;42.698;23.148;2022-09-20T08:52:26;93838.59;;;13.66;59.74
10606;BME280;5350;42.698;23.148;2022-09-20T08:54:54;93834.03;;;13.57;60.35
10606;BME280;5350;42.698;23.148;2022-09-20T08:57:21;93831.50;;;13.52;60.01
10606;BME280;5350;42.698;23.148;2022-09-20T08:59:48;93829.81;;;13.56;58.87
10606;BME280;5350;42.698;23.148;2022-09-20T09:02:16;93828.56;;;13.54;59.99
10606;BME280;5350;42.698;23.148;2022-09-20T09:04:43;93828.03;;;13.43;60.36
10606;BME280;5350;42.698;23.148;2022-09-20T09:07:12;93824.06;;;13.54;62.96
10606;BME280;5350;42.698;23.148;2022-09-20T09:09:40;93817.56;;;13.60;60.46
10606;BME280;5350;42.698;23.148;2022-09-20T09:12:13;93824.81;;;13.77;57.87
10606;BME280;5350;42.698;23.148;2022-09-20T09:14:41;93811.72;;;14.03;58.05
10606;BME280;5350;42.698;23.148;2022-09-20T09:17:16;93803.59;;;14.30;54.18
10606;BME280;5350;42.698;23.148;2022-09-20T09:19:44;93799.94;;;14.65;51.73
10606;BME280;5350;42.698;23.148;2022-09-20T09:22:16;93789.03;;;14.75;50.88
10606;BME280;5350;42.698;23.148;2022-09-20T09:24:43;93799.34;;;14.68;50.90
10606;BME280;5350;42.698;23.148;2022-09-20T09:27:13;93802.28;;;14.84;50.97
10606;BME280;5350;42.698;23.148;2022-09-20T09:29:47;93799.47;;;14.63;50.45
10606;BME280;5350;42.698;23.148;2022-09-20T09:32:18;93794.59;;;14.48;49.87
10606;BME280;5350;42.698;23.148;2022-09-20T09:34:45;93782.78;;;14.54;49.28
10606;BME280;5350;42.698;23.148;2022-09-20T09:37:21;93779.53;;;14.57;50.97
10606;BME280;5350;42.698;23.148;2022-09-20T09:39:50;93787.47;;;14.57;49.91
10606;BME280;5350;42.698;23.148;2022-09-20T09:42:30;93792.88;;;14.43;49.77
10606;BME280;5350;42.698;23.148;2022-09-20T09:45:08;93789.81;;;14.59;53.04
10606;BME280;5350;42.698;23.148;2022-09-20T09:47:35;93782.13;;;14.40;54.21
10606;BME280;5350;42.698;23.148;2022-09-20T09:50:02;93777.28;;;14.33;56.44
10606;BME280;5350;42.698;23.148;2022-09-20T09:52:30;93786.06;;;14.51;58.02
10606;BME280;5350;42.698;23.148;2022-09-20T09:55:00;93790.28;;;14.69;53.80
10606;BME280;5350;42.698;23.148;2022-09-20T09:57:31;93798.88;;;14.66;51.81
10606;BME280;5350;42.698;23.148;2022-09-20T10:00:03;93785.13;;;14.56;54.11
10606;BME280;5350;42.698;23.148;2022-09-20T10:02:39;93785.53;;;14.32;52.11
10606;BME280;5350;42.698;23.148;2022-09-20T10:05:12;93783.72;;;14.41;52.88
10606;BME280;5350;42.698;23.148;2022-09-20T10:07:45;93787.31;;;14.45;50.70
10606;BME280;5350;42.698;23.148;2022-09-20T10:10:18;93776.72;;;14.45;52.60
10606;BME280;5350;42.698;23.148;2022-09-20T10:12:50;93786.38;;;14.50;51.34
10606;BME280;5350;42.698;23.148;2022-09-20T10:15:27;93777.78;;;14.44;51.06
10606;BME280;5350;42.698;23.148;2022-09-20T10:18:01;93779.66;;;14.43;49.65
10606;BME280;5350;42.698;23.148;2022-09-20T10:20:42;93772.53;;;14.61;49.61
10606;BME280;5350;42.698;23.148;2022-09-20T10:23:21;93773.50;;;14.82;51.53
10606;BME280;5350;42.698;23.148;2022-09-20T10:25:52;93780.03;;;14.85;50.36
10606;BME280;5350;42.698;23.148;2022-09-20T10:28:25;93779.22;;;14.67;53.08
10606;BME280;5350;42.698;23.148;2022-09-20T10:30:58;93778.56;;;14.45;52.83
10606;BME280;5350;42.698;23.148;2022-09-20T10:33:31;93785.25;;;14.42;51.56
10606;BME280;5350;42.698;23.148;2022-09-20T10:36:07;93783.25;;;14.65;51.56
10606;BME280;5350;42.698;23.148;2022-09-20T10:38:39;93777.84;;;14.78;49.99
10606;BME280;5350;42.698;23.148;2022-09-20T10:41:13;93781.91;;;14.84;49.72
10606;BME280;5350;42.698;23.148;2022-09-20T10:44:03;93785.44;;;14.63;49.70
10606;BME280;5350;42.698;23.148;2022-09-20T10:46:33;93788.66;;;14.34;51.21
10606;BME280;5350;42.698;23.148;2022-09-20T10:49:06;93784.34;;;14.55;51.14
10606;BME280;5350;42.698;23.148;2022-09-20T10:51:40;93779.09;;;15.06;50.36
10606;BME280;5350;42.698;23.148;2022-09-20T10:54:12;93784.84;;;15.60;49.03
10606;BME280;5350;42.698;23.148;2022-09-20T10:56:42;93763.78;;;16.01;48.14
10606;BME280;5350;42.698;23.148;2022-09-20T11:01:52;93761.78;;;16.27;46.49
10606;BME280;5350;42.698;23.148;2022-09-20T11:04:29;93763.00;;;16.00;45.13
10606;BME280;5350;42.698;23.148;2022-09-20T11:07:03;93751.31;;;16.31;45.25
10606;BME280;5350;42.698;23.148;2022-09-20T11:09:34;93746.91;;;16.06;46.30
10606;BME280;5350;42.698;23.148;2022-09-20T11:12:05;93746.06;;;16.22;47.49
10606;BME280;5350;42.698;23.148;2022-09-20T11:14:37;93743.09;;;15.86;45.51
10606;BME280;5350;42.698;23.148;2022-09-20T11:17:09;93750.72;;;15.50;46.57
10606;BME280;5350;42.698;23.148;2022-09-20T11:19:42;93742.28;;;15.39;48.78
10606;BME280;5350;42.698;23.148;2022-09-20T11:22:13;93747.81;;;15.72;48.54
10606;BME280;5350;42.698;23.148;2022-09-20T11:24:44;93744.72;;;15.70;48.99
10606;BME280;5350;42.698;23.148;2022-09-20T11:27:13;93743.00;;;15.65;47.71
10606;BME280;5350;42.698;23.148;2022-09-20T11:29:43;93735.50;;;15.67;46.92
10606;BME280;5350;42.698;23.148;2022-09-20T11:32:13;93730.69;;;15.61;47.56
10606;BME280;5350;42.698;23.148;2022-09-20T11:34:43;93735.50;;;15.67;46.89
10606;BME280;5350;42.698;23.148;2022-09-20T11:37:13;93736.72;;;15.78;44.74
10606;BME280;5350;42.698;23.148;2022-09-20T11:39:43;93735.16;;;16.15;45.49
10606;BME280;5350;42.698;23.148;2022-09-20T11:42:12;93736.53;;;16.21;43.81
10606;BME280;5350;42.698;23.148;2022-09-20T11:44:40;93723.75;;;16.44;42.82
10606;BME280;5350;42.698;23.148;2022-09-20T11:47:10;93721.91;;;16.86;45.45
10606;BME280;5350;42.698;23.148;2022-09-20T11:49:41;93710.88;;;17.16;43.09
10606;BME280;5350;42.698;23.148;2022-09-20T11:52:24;93717.66;;;17.26;41.27
10606;BME280;5350;42.698;23.148;2022-09-20T11:55:08;93727.03;;;16.70;39.66
10606;BME280;5350;42.698;23.148;2022-09-20T11:57:40;93721.78;;;16.61;39.84
10606;BME280;5350;42.698;23.148;2022-09-20T12:00:07;93726.97;;;16.78;40.33
10606;BME280;5350;42.698;23.148;2022-09-20T12:02:35;93700.31;;;17.08;39.43
10606;BME280;5350;42.698;23.148;2022-09-20T12:05:02;93708.03;;;17.66;38.50
10606;BME280;5350;42.698;23.148;2022-09-20T12:07:31;93712.38;;;17.38;38.66
10606;BME280;5350;42.698;23.148;2022-09-20T12:10:01;93704.75;;;17.04;40.16
10606;BME280;5350;42.698;23.148;2022-09-20T12:12:34;93709.59;;;17.02;41.13
10606;BME280;5350;42.698;23.148;2022-09-20T12:15:02;93716.06;;;16.92;41.03
10606;BME280;5350;42.698;23.148;2022-09-20T12:22:53;93703.13;;;16.91;40.88
10606;BME280;5350;42.698;23.148;2022-09-20T12:25:39;93686.25;;;17.07;41.36
10606;BME280;5350;42.698;23.148;2022-09-20T12:28:10;93684.13;;;17.78;40.56
10606;BME280;5350;42.698;23.148;2022-09-20T12:30:39;93694.44;;;18.16;38.70
10606;BME280;5350;42.698;23.148;2022-09-20T12:33:07;93696.53;;;18.22;38.08
10606;BME280;5350;42.698;23.148;2022-09-20T12:35:56;93686.31;;;18.61;38.04
10606;BME280;5350;42.698;23.148;2022-09-20T12:41:12;93695.75;;;18.46;37.24
10606;BME280;5350;42.698;23.148;2022-09-20T12:43:49;93695.84;;;18.62;36.74
10606;BME280;5350;42.698;23.148;2022-09-20T12:46:20;93709.38;;;18.57;36.88
10606;BME280;5350;42.698;23.148;2022-09-20T12:48:47;93698.28;;;18.43;36.86
10606;BME280;5350;42.698;23.148;2022-09-20T12:51:18;93692.97;;;18.55;37.16
10606;BME280;5350;42.698;23.148;2022-09-20T12:54:04;93691.13;;;18.83;37.64
10606;BME280;5350;42.698;23.148;2022-09-20T12:56:33;93688.50;;;18.98;37.64
10606;BME280;5350;42.698;23.148;2022-09-20T12:59:02;93686.28;;;18.73;38.81
10606;BME280;5350;42.698;23.148;2022-09-20T13:01:35;93682.66;;;18.93;35.59
10606;BME280;5350;42.698;23.148;2022-09-20T13:07:24;93683.78;;;18.52;35.82
10606;BME280;5350;42.698;23.148;2022-09-20T13:09:34;93685.16;;;18.74;36.41
10606;BME280;5350;42.698;23.148;2022-09-20T13:12:01;93682.00;;;18.56;36.70
10606;BME280;5350;42.698;23.148;2022-09-20T13:14:29;93680.34;;;18.52;37.08
10606;BME280;5350;42.698;23.148;2022-09-20T13:16:58;93687.34;;;18.84;36.70
10606;BME280;5350;42.698;23.148;2022-09-20T13:19:26;93681.22;;;18.56;35.99
10606;BME280;5350;42.698;23.148;2022-09-20T13:21:55;93671.03;;;18.73;36.84
10606;BME280;5350;42.698;23.148;2022-09-20T13:24:23;93673.88;;;18.65;35.75
10606;BME280;5350;42.698;23.148;2022-09-20T13:26:51;93678.88;;;18.54;36.31
10606;BME280;5350;42.698;23.148;2022-09-20T13:29:21;93673.53;;;18.66;36.68
10606;BME280;5350;42.698;23.148;2022-09-20T13:31:52;93665.66;;;18.97;36.77
10606;BME280;5350;42.698;23.148;2022-09-20T13:34:20;93663.84;;;19.01;36.66
10606;BME280;5350;42.698;23.148;2022-09-20T13:36:47;93671.22;;;18.65;37.38
10606;BME280;5350;42.698;23.148;2022-09-20T13:39:22;93670.78;;;18.51;36.03
10606;BME280;5350;42.698;23.148;2022-09-20T13:41:49;93672.91;;;18.45;36.55
10606;BME280;5350;42.698;23.148;2022-09-20T13:44:17;93672.13;;;18.20;35.97
10606;BME280;5350;42.698;23.148;2022-09-20T13:46:44;93669.00;;;18.30;37.04
10606;BME280;5350;42.698;23.148;2022-09-20T13:49:15;93679.00;;;18.58;37.04
10606;BME280;5350;42.698;23.148;2022-09-20T13:51:45;93668.94;;;18.79;37.00
10606;BME280;5350;42.698;23.148;2022-09-20T13:54:19;93667.53;;;18.57;35.57
10606;BME280;5350;42.698;23.148;2022-09-20T13:56:46;93657.72;;;18.46;35.74
10606;BME280;5350;42.698;23.148;2022-09-20T13:59:13;93670.78;;;18.51;36.18
10606;BME280;5350;42.698;23.148;2022-09-20T14:01:42;93667.69;;;18.49;35.80
10606;BME280;5350;42.698;23.148;2022-09-20T14:04:12;93659.03;;;18.40;35.96